sensor_id;sensor_type;location;lat;lon;timestamp;noise_LAeq;noise_LA_min;noise_LA_max;noise_LA01;noise_LA95
66456;Laerm;56833;52.254;5.598;2023-03-08T00:00:00;43.50;42.50;44.38;;
66456;Laerm;56833;52.254;5.598;2023-03-08T00:00:12;43.54;42.52;44.51;;
66456;Laerm;56833;52.254;5.598;2023-03-08T00:00:23;43.47;42.63;44.33;;
66456;Laerm;56833;52.254;5.598;2023-03-08T00:00:33;43.47;42.28;44.58;;
66456;Laerm;56833;52.254;5.598;2023-03-08T00:00:51;43.48;42.42;44.47;;
66456;Laerm;56833;52.254;5.598;2023-03-08T00:01:02;43.50;42.52;44.56;;
66456;Laerm;56833;52.254;5.598;2023-03-08T00:01:16;43.49;42.48;44.33;;
66456;Laerm;56833;52.254;5.598;2023-03-08T00:01:27;43.45;42.48;44.33;;
66456;Laerm;56833;52.254;5.598;2023-03-08T00:01:37;43.50;42.59;44.38;;
66456;Laerm;56833;52.254;5.598;2023-03-08T00:01:47;43.46;42.42;44.22;;
66456;Laerm;56833;52.254;5.598;2023-03-08T00:01:57;43.49;42.56;44.36;;
66456;Laerm;56833;52.254;5.598;2023-03-08T00:02:08;43.45;42.46;44.48;;
66456;Laerm;56833;52.254;5.598;2023-03-08T00:02:21;43.46;42.51;44.53;;
66456;Laerm;56833;52.254;5.598;2023-03-08T00:02:31;43.50;42.29;44.58;;
66456;Laerm;56833;52.254;5.598;2023-03-08T00:02:42;43.50;42.52;44.49;;
66456;Laerm;56833;52.254;5.598;2023-03-08T00:02:52;43.48;42.49;44.33;;
66456;Laerm;56833;52.254;5.598;2023-03-08T00:03:11;43.49;42.26;44.47;;
66456;Laerm;56833;52.254;5.598;2023-03-08T00:03:22;43.45;42.61;44.60;;
66456;Laerm;56833;52.254;5.598;2023-03-08T00:03:32;43.45;42.46;44.29;;
66456;Laerm;56833;52.254;5.598;2023-03-08T00:03:43;43.46;42.51;44.39;;
66456;Laerm;56833;52.254;5.598;2023-03-08T00:03:53;43.45;42.18;44.33;;
66456;Laerm;56833;52.254;5.598;2023-03-08T00:04:12;43.47;42.36;44.48;;
66456;Laerm;56833;52.254;5.598;2023-03-08T00:04:22;43.41;42.53;44.27;;
66456;Laerm;56833;52.254;5.598;2023-03-08T00:04:33;43.43;42.41;44.40;;
66456;Laerm;56833;52.254;5.598;2023-03-08T00:04:43;43.44;42.15;44.46;;
66456;Laerm;56833;52.254;5.598;2023-03-08T00:04:59;43.43;42.28;44.33;;
66456;Laerm;56833;52.254;5.598;2023-03-08T00:05:13;43.43;42.18;44.49;;
66456;Laerm;56833;52.254;5.598;2023-03-08T00:05:23;43.46;42.33;44.33;;
66456;Laerm;56833;52.254;5.598;2023-03-08T00:05:33;43.42;42.09;44.66;;
66456;Laerm;56833;52.254;5.598;2023-03-08T00:05:49;43.44;42.41;44.54;;
66456;Laerm;56833;52.254;5.598;2023-03-08T00:06:02;43.44;42.52;44.66;;
66456;Laerm;56833;52.254;5.598;2023-03-08T00:06:15;43.46;42.45;44.56;;
66456;Laerm;56833;52.254;5.598;2023-03-08T00:06:26;43.47;42.47;44.27;;
66456;Laerm;56833;52.254;5.598;2023-03-08T00:06:39;43.44;42.47;44.32;;
66456;Laerm;56833;52.254;5.598;2023-03-08T00:06:49;43.41;42.51;44.25;;
66456;Laerm;56833;52.254;5.598;2023-03-08T00:06:59;43.45;42.47;44.38;;
66456;Laerm;56833;52.254;5.598;2023-03-08T00:07:13;43.45;42.26;44.73;;
66456;Laerm;56833;52.254;5.598;2023-03-08T00:07:24;43.44;42.14;44.68;;
66456;Laerm;56833;52.254;5.598;2023-03-08T00:07:34;43.45;42.52;44.21;;
66456;Laerm;56833;52.254;5.598;2023-03-08T00:07:44;43.49;42.26;44.35;;
66456;Laerm;56833;52.254;5.598;2023-03-08T00:07:54;43.49;42.38;44.39;;
66456;Laerm;56833;52.254;5.598;2023-03-08T00:08:05;43.44;42.50;44.41;;
66456;Laerm;56833;52.254;5.598;2023-03-08T00:08:19;43.45;42.45;44.37;;
66456;Laerm;56833;52.254;5.598;2023-03-08T00:08:29;43.46;42.30;44.38;;
66456;Laerm;56833;52.254;5.598;2023-03-08T00:08:40;43.46;42.51;44.45;;
66456;Laerm;56833;52.254;5.598;2023-03-08T00:08:53;43.49;42.62;44.36;;
66456;Laerm;56833;52.254;5.598;2023-03-08T00:09:03;43.47;42.39;44.43;;
66456;Laerm;56833;52.254;5.598;2023-03-08T00:09:14;43.47;42.47;44.21;;
66456;Laerm;56833;52.254;5.598;2023-03-08T00:09:26;43.43;42.47;44.28;;
66456;Laerm;56833;52.254;5.598;2023-03-08T00:09:37;43.45;42.38;44.56;;
66456;Laerm;56833;52.254;5.598;2023-03-08T00:10:05;43.47;42.49;44.25;;
66456;Laerm;56833;52.254;5.598;2023-03-08T00:10:15;43.45;42.31;44.53;;
66456;Laerm;56833;52.254;5.598;2023-03-08T00:10:26;43.44;42.62;44.46;;
66456;Laerm;56833;52.254;5.598;2023-03-08T00:10:39;43.48;42.40;44.49;;
66456;Laerm;56833;52.254;5.598;2023-03-08T00:10:52;43.47;42.18;44.41;;
66456;Laerm;56833;52.254;5.598;2023-03-08T00:11:08;43.46;42.57;44.40;;
66456;Laerm;56833;52.254;5.598;2023-03-08T00:11:19;43.47;42.39;44.44;;
66456;Laerm;56833;52.254;5.598;2023-03-08T00:11:29;43.45;42.50;44.54;;
66456;Laerm;56833;52.254;5.598;2023-03-08T00:11:40;43.46;42.61;44.30;;
66456;Laerm;56833;52.254;5.598;2023-03-08T00:11:50;43.47;42.14;44.45;;
66456;Laerm;56833;52.254;5.598;2023-03-08T00:12:00;43.43;42.58;44.33;;
66456;Laerm;56833;52.254;5.598;2023-03-08T00:12:11;43.48;42.44;44.51;;
66456;Laerm;56833;52.254;5.598;2023-03-08T00:12:21;43.46;42.49;44.38;;
66456;Laerm;56833;52.254;5.598;2023-03-08T00:12:45;43.50;42.39;44.52;;
66456;Laerm;56833;52.254;5.598;2023-03-08T00:12:55;43.46;42.30;44.51;;
66456;Laerm;56833;52.254;5.598;2023-03-08T00:13:06;43.47;42.60;44.19;;
66456;Laerm;56833;52.254;5.598;2023-03-08T00:13:16;43.47;42.55;44.48;;
66456;Laerm;56833;52.254;5.598;2023-03-08T00:13:29;43.48;42.50;44.42;;
66456;Laerm;56833;52.254;5.598;2023-03-08T00:13:39;43.46;42.29;44.52;;
66456;Laerm;56833;52.254;5.598;2023-03-08T00:13:59;43.47;42.68;44.48;;
66456;Laerm;56833;52.254;5.598;2023-03-08T00:14:11;43.46;42.15;44.49;;
66456;Laerm;56833;52.254;5.598;2023-03-08T00:14:22;43.41;42.43;44.17;;
66456;Laerm;56833;52.254;5.598;2023-03-08T00:14:32;43.41;42.57;44.32;;
66456;Laerm;56833;52.254;5.598;2023-03-08T00:14:43;43.41;42.43;44.24;;
66456;Laerm;56833;52.254;5.598;2023-03-08T00:14:55;43.44;42.53;44.48;;
66456;Laerm;56833;52.254;5.598;2023-03-08T00:15:06;43.43;42.35;44.56;;
66456;Laerm;56833;52.254;5.598;2023-03-08T00:15:16;43.37;42.42;44.28;;
66456;Laerm;56833;52.254;5.598;2023-03-08T00:15:29;43.41;42.50;44.90;;
66456;Laerm;56833;52.254;5.598;2023-03-08T00:15:47;43.41;42.32;44.22;;
66456;Laerm;56833;52.254;5.598;2023-03-08T00:16:04;43.42;42.34;44.46;;
66456;Laerm;56833;52.254;5.598;2023-03-08T00:16:18;43.41;42.24;44.54;;
66456;Laerm;56833;52.254;5.598;2023-03-08T00:16:36;43.43;42.31;44.36;;
66456;Laerm;56833;52.254;5.598;2023-03-08T00:16:46;43.44;42.23;44.55;;
66456;Laerm;56833;52.254;5.598;2023-03-08T00:16:59;43.43;42.52;44.74;;
66456;Laerm;56833;52.254;5.598;2023-03-08T00:17:11;43.47;42.35;44.53;;
66456;Laerm;56833;52.254;5.598;2023-03-08T00:17:37;43.44;42.50;44.29;;
66456;Laerm;56833;52.254;5.598;2023-03-08T00:17:54;43.45;42.00;44.50;;
66456;Laerm;56833;52.254;5.598;2023-03-08T00:18:24;43.44;42.30;44.46;;
66456;Laerm;56833;52.254;5.598;2023-03-08T00:18:38;43.41;42.34;44.52;;
66456;Laerm;56833;52.254;5.598;2023-03-08T00:18:57;43.46;42.46;44.33;;
66456;Laerm;56833;52.254;5.598;2023-03-08T00:19:07;43.45;42.57;44.45;;
66456;Laerm;56833;52.254;5.598;2023-03-08T00:19:18;43.43;42.26;44.40;;
66456;Laerm;56833;52.254;5.598;2023-03-08T00:19:28;43.44;42.43;44.42;;
66456;Laerm;56833;52.254;5.598;2023-03-08T00:19:44;43.40;42.52;44.28;;
66456;Laerm;56833;52.254;5.598;2023-03-08T00:19:55;43.41;42.41;44.48;;
66456;Laerm;56833;52.254;5.598;2023-03-08T00:20:07;43.44;42.21;44.59;;
66456;Laerm;56833;52.254;5.598;2023-03-08T00:20:17;43.46;42.55;44.46;;
66456;Laerm;56833;52.254;5.598;2023-03-08T00:20:31;43.48;42.62;44.36;;
66456;Laerm;56833;52.254;5.598;2023-03-08T00:20:41;43.43;42.52;44.43;;
66456;Laerm;56833;52.254;5.598;2023-03-08T00:20:58;43.45;42.44;44.27;;
66456;Laerm;56833;52.254;5.598;2023-03-08T00:21:10;43.44;42.41;44.30;;
66456;Laerm;56833;52.254;5.598;2023-03-08T00:21:20;43.44;42.48;44.40;;
66456;Laerm;56833;52.254;5.598;2023-03-08T00:21:33;43.44;42.45;44.36;;
66456;Laerm;56833;52.254;5.598;2023-03-08T00:21:44;43.44;42.33;44.36;;
66456;Laerm;56833;52.254;5.598;2023-03-08T00:21:54;43.44;42.50;44.66;;
66456;Laerm;56833;52.254;5.598;2023-03-08T00:22:04;43.46;42.42;44.66;;
66456;Laerm;56833;52.254;5.598;2023-03-08T00:22:14;43.47;42.58;44.43;;
66456;Laerm;56833;52.254;5.598;2023-03-08T00:22:27;43.48;42.63;44.31;;
66456;Laerm;56833;52.254;5.598;2023-03-08T00:22:38;43.45;42.24;44.79;;
66456;Laerm;56833;52.254;5.598;2023-03-08T00:22:51;43.44;42.20;44.36;;
66456;Laerm;56833;52.254;5.598;2023-03-08T00:23:02;43.44;42.32;44.41;;
66456;Laerm;56833;52.254;5.598;2023-03-08T00:23:12;43.42;42.47;44.48;;
66456;Laerm;56833;52.254;5.598;2023-03-08T00:23:22;43.39;42.37;44.25;;
66456;Laerm;56833;52.254;5.598;2023-03-08T00:23:33;43.42;42.50;44.44;;
66456;Laerm;56833;52.254;5.598;2023-03-08T00:23:45;43.41;42.33;44.45;;
66456;Laerm;56833;52.254;5.598;2023-03-08T00:23:56;43.39;42.58;44.79;;
66456;Laerm;56833;52.254;5.598;2023-03-08T00:24:06;43.40;42.37;44.20;;
66456;Laerm;56833;52.254;5.598;2023-03-08T00:24:16;43.37;42.39;44.41;;
66456;Laerm;56833;52.254;5.598;2023-03-08T00:24:28;43.41;42.61;44.57;;
66456;Laerm;56833;52.254;5.598;2023-03-08T00:24:39;43.37;42.37;44.44;;
66456;Laerm;56833;52.254;5.598;2023-03-08T00:24:54;43.43;42.31;44.29;;
66456;Laerm;56833;52.254;5.598;2023-03-08T00:25:16;43.43;42.12;44.39;;
66456;Laerm;56833;52.254;5.598;2023-03-08T00:25:50;43.43;42.19;44.64;;
66456;Laerm;56833;52.254;5.598;2023-03-08T00:26:01;43.46;42.61;44.57;;
66456;Laerm;56833;52.254;5.598;2023-03-08T00:26:14;43.44;42.61;44.48;;
66456;Laerm;56833;52.254;5.598;2023-03-08T00:26:24;43.44;42.39;44.15;;
66456;Laerm;56833;52.254;5.598;2023-03-08T00:26:44;43.46;42.33;44.57;;
66456;Laerm;56833;52.254;5.598;2023-03-08T00:26:54;43.43;42.35;44.38;;
66456;Laerm;56833;52.254;5.598;2023-03-08T00:27:38;43.44;42.34;44.68;;
66456;Laerm;56833;52.254;5.598;2023-03-08T00:27:48;43.40;42.23;44.34;;
66456;Laerm;56833;52.254;5.598;2023-03-08T00:27:50;43.44;42.39;44.32;;
66456;Laerm;56833;52.254;5.598;2023-03-08T00:27:59;43.45;42.43;44.55;;
66456;Laerm;56833;52.254;5.598;2023-03-08T00:28:14;43.41;42.46;44.48;;
66456;Laerm;56833;52.254;5.598;2023-03-08T00:28:25;43.41;42.61;44.54;;
66456;Laerm;56833;52.254;5.598;2023-03-08T00:28:35;43.40;42.53;44.64;;
66456;Laerm;56833;52.254;5.598;2023-03-08T00:28:51;43.48;42.35;44.58;;
66456;Laerm;56833;52.254;5.598;2023-03-08T00:29:10;43.45;42.47;44.29;;
66456;Laerm;56833;52.254;5.598;2023-03-08T00:29:26;43.45;42.21;44.54;;
66456;Laerm;56833;52.254;5.598;2023-03-08T00:29:37;43.44;42.47;44.61;;
66456;Laerm;56833;52.254;5.598;2023-03-08T00:29:53;43.43;42.20;44.39;;
66456;Laerm;56833;52.254;5.598;2023-03-08T00:30:06;43.45;42.53;44.53;;
66456;Laerm;56833;52.254;5.598;2023-03-08T00:30:17;43.48;42.63;44.62;;
66456;Laerm;56833;52.254;5.598;2023-03-08T00:30:27;43.44;42.50;44.35;;
66456;Laerm;56833;52.254;5.598;2023-03-08T00:30:37;43.48;42.55;44.46;;
66456;Laerm;56833;52.254;5.598;2023-03-08T00:30:54;43.48;42.38;44.31;;
66456;Laerm;56833;52.254;5.598;2023-03-08T00:31:26;43.47;42.27;44.60;;
66456;Laerm;56833;52.254;5.598;2023-03-08T00:31:35;43.46;42.45;44.45;;
66456;Laerm;56833;52.254;5.598;2023-03-08T00:32:23;43.46;42.37;44.59;;
66456;Laerm;56833;52.254;5.598;2023-03-08T00:32:37;43.47;42.44;44.83;;
66456;Laerm;56833;52.254;5.598;2023-03-08T00:32:47;43.45;42.20;44.33;;
66456;Laerm;56833;52.254;5.598;2023-03-08T00:32:57;43.46;42.26;44.50;;
66456;Laerm;56833;52.254;5.598;2023-03-08T00:33:07;43.46;42.39;44.64;;
66456;Laerm;56833;52.254;5.598;2023-03-08T00:33:18;43.44;42.49;44.28;;
66456;Laerm;56833;52.254;5.598;2023-03-08T00:33:30;43.46;42.38;44.61;;
66456;Laerm;56833;52.254;5.598;2023-03-08T00:33:45;43.39;42.57;44.22;;
66456;Laerm;56833;52.254;5.598;2023-03-08T00:33:55;43.41;42.23;44.75;;
66456;Laerm;56833;52.254;5.598;2023-03-08T00:34:08;43.43;42.46;44.55;;
66456;Laerm;56833;52.254;5.598;2023-03-08T00:34:18;43.44;42.32;44.45;;
66456;Laerm;56833;52.254;5.598;2023-03-08T00:34:28;43.43;42.46;44.39;;
66456;Laerm;56833;52.254;5.598;2023-03-08T00:34:39;43.43;42.51;44.29;;
66456;Laerm;56833;52.254;5.598;2023-03-08T00:34:49;43.44;42.53;44.40;;
66456;Laerm;56833;52.254;5.598;2023-03-08T00:35:03;43.43;42.58;44.38;;
66456;Laerm;56833;52.254;5.598;2023-03-08T00:35:13;43.41;42.45;44.34;;
66456;Laerm;56833;52.254;5.598;2023-03-08T00:35:26;43.44;42.37;44.35;;
66456;Laerm;56833;52.254;5.598;2023-03-08T00:35:36;43.42;42.46;44.68;;
66456;Laerm;56833;52.254;5.598;2023-03-08T00:35:53;43.40;42.36;44.37;;
66456;Laerm;56833;52.254;5.598;2023-03-08T00:36:08;43.42;42.22;44.52;;
66456;Laerm;56833;52.254;5.598;2023-03-08T00:36:20;43.41;42.34;44.47;;
66456;Laerm;56833;52.254;5.598;2023-03-08T00:37:01;43.46;42.36;44.44;;
66456;Laerm;56833;52.254;5.598;2023-03-08T00:37:12;43.52;42.56;44.67;;
66456;Laerm;56833;52.254;5.598;2023-03-08T00:37:25;43.43;42.47;44.68;;
66456;Laerm;56833;52.254;5.598;2023-03-08T00:37:35;43.51;42.55;44.37;;
66456;Laerm;56833;52.254;5.598;2023-03-08T00:37:45;43.46;42.50;44.28;;
66456;Laerm;56833;52.254;5.598;2023-03-08T00:37:58;43.47;42.59;44.57;;
66456;Laerm;56833;52.254;5.598;2023-03-08T00:38:08;43.50;42.52;44.39;;
66456;Laerm;56833;52.254;5.598;2023-03-08T00:38:19;43.47;42.27;44.34;;
66456;Laerm;56833;52.254;5.598;2023-03-08T00:38:30;43.47;42.68;44.41;;
66456;Laerm;56833;52.254;5.598;2023-03-08T00:38:52;43.47;42.39;44.40;;
66456;Laerm;56833;52.254;5.598;2023-03-08T00:39:03;43.47;42.44;44.44;;
66456;Laerm;56833;52.254;5.598;2023-03-08T00:39:15;43.45;42.27;44.32;;
66456;Laerm;56833;52.254;5.598;2023-03-08T00:39:26;43.49;42.46;44.59;;
66456;Laerm;56833;52.254;5.598;2023-03-08T00:39:36;43.47;42.60;44.50;;
66456;Laerm;56833;52.254;5.598;2023-03-08T00:39:50;43.50;42.59;44.39;;
66456;Laerm;56833;52.254;5.598;2023-03-08T00:40:01;43.45;42.42;44.57;;
66456;Laerm;56833;52.254;5.598;2023-03-08T00:40:12;43.48;42.44;44.45;;
66456;Laerm;56833;52.254;5.598;2023-03-08T00:40:25;43.44;42.32;44.34;;
66456;Laerm;56833;52.254;5.598;2023-03-08T00:40:35;43.44;42.25;44.33;;
66456;Laerm;56833;52.254;5.598;2023-03-08T00:40:46;43.48;42.62;44.38;;
66456;Laerm;56833;52.254;5.598;2023-03-08T00:40:59;43.44;42.48;44.76;;
66456;Laerm;56833;52.254;5.598;2023-03-08T00:41:09;43.45;42.34;44.69;;
66456;Laerm;56833;52.254;5.598;2023-03-08T00:41:19;43.47;42.36;44.37;;
66456;Laerm;56833;52.254;5.598;2023-03-08T00:41:32;43.45;42.53;44.35;;
66456;Laerm;56833;52.254;5.598;2023-03-08T00:41:43;43.43;42.25;44.44;;
66456;Laerm;56833;52.254;5.598;2023-03-08T00:42:05;43.43;42.40;44.23;;
66456;Laerm;56833;52.254;5.598;2023-03-08T00:42:15;43.43;42.28;44.34;;
66456;Laerm;56833;52.254;5.598;2023-03-08T00:42:25;43.44;42.49;44.25;;
66456;Laerm;56833;52.254;5.598;2023-03-08T00:42:35;43.44;42.58;44.38;;
66456;Laerm;56833;52.254;5.598;2023-03-08T00:42:49;43.45;42.39;44.43;;
66456;Laerm;56833;52.254;5.598;2023-03-08T00:43:02;43.42;42.62;44.59;;
66456;Laerm;56833;52.254;5.598;2023-03-08T00:43:23;43.45;42.22;44.33;;
66456;Laerm;56833;52.254;5.598;2023-03-08T00:43:34;43.47;42.36;44.62;;
66456;Laerm;56833;52.254;5.598;2023-03-08T00:43:47;43.44;42.43;44.38;;
66456;Laerm;56833;52.254;5.598;2023-03-08T00:43:57;43.46;42.48;44.54;;
66456;Laerm;56833;52.254;5.598;2023-03-08T00:44:07;43.48;42.56;44.29;;
66456;Laerm;56833;52.254;5.598;2023-03-08T00:44:18;43.46;42.32;44.53;;
66456;Laerm;56833;52.254;5.598;2023-03-08T00:44:30;43.47;42.30;44.36;;
66456;Laerm;56833;52.254;5.598;2023-03-08T00:44:40;43.46;42.55;44.41;;
66456;Laerm;56833;52.254;5.598;2023-03-08T00:44:51;43.49;42.67;44.33;;
66456;Laerm;56833;52.254;5.598;2023-03-08T00:45:01;43.49;42.62;44.30;;
66456;Laerm;56833;52.254;5.598;2023-03-08T00:45:17;43.46;42.47;44.69;;
66456;Laerm;56833;52.254;5.598;2023-03-08T00:45:35;43.48;42.30;44.46;;
66456;Laerm;56833;52.254;5.598;2023-03-08T00:45:45;43.46;42.47;44.49;;
66456;Laerm;56833;52.254;5.598;2023-03-08T00:45:56;43.48;42.38;44.29;;
66456;Laerm;56833;52.254;5.598;2023-03-08T00:46:09;43.47;42.44;44.42;;
66456;Laerm;56833;52.254;5.598;2023-03-08T00:46:25;43.47;42.63;44.33;;
66456;Laerm;56833;52.254;5.598;2023-03-08T00:47:09;43.45;42.36;44.40;;
66456;Laerm;56833;52.254;5.598;2023-03-08T00:47:19;43.48;42.68;44.77;;
66456;Laerm;56833;52.254;5.598;2023-03-08T00:47:29;43.47;42.28;44.51;;
66456;Laerm;56833;52.254;5.598;2023-03-08T00:47:42;43.48;42.62;44.63;;
66456;Laerm;56833;52.254;5.598;2023-03-08T00:47:53;43.48;42.40;44.35;;
66456;Laerm;56833;52.254;5.598;2023-03-08T00:48:03;43.52;42.58;44.64;;
66456;Laerm;56833;52.254;5.598;2023-03-08T00:48:19;43.48;42.41;44.58;;
66456;Laerm;56833;52.254;5.598;2023-03-08T00:48:29;43.47;42.61;44.49;;
66456;Laerm;56833;52.254;5.598;2023-03-08T00:48:40;43.46;42.56;44.48;;
66456;Laerm;56833;52.254;5.598;2023-03-08T00:48:54;43.46;42.50;44.36;;
66456;Laerm;56833;52.254;5.598;2023-03-08T00:49:04;43.49;42.27;44.67;;
66456;Laerm;56833;52.254;5.598;2023-03-08T00:49:17;43.49;42.60;44.49;;
66456;Laerm;56833;52.254;5.598;2023-03-08T00:49:27;43.50;42.53;44.52;;
66456;Laerm;56833;52.254;5.598;2023-03-08T00:49:37;43.45;42.38;44.30;;
66456;Laerm;56833;52.254;5.598;2023-03-08T00:49:51;43.47;42.54;44.57;;
66456;Laerm;56833;52.254;5.598;2023-03-08T00:50:04;43.46;42.52;44.62;;
66456;Laerm;56833;52.254;5.598;2023-03-08T00:50:17;43.45;42.48;44.33;;
66456;Laerm;56833;52.254;5.598;2023-03-08T00:50:33;43.49;42.31;44.55;;
66456;Laerm;56833;52.254;5.598;2023-03-08T00:50:58;43.45;42.36;44.68;;
66456;Laerm;56833;52.254;5.598;2023-03-08T00:51:09;43.40;41.98;44.39;;
66456;Laerm;56833;52.254;5.598;2023-03-08T00:51:21;43.43;42.25;44.96;;
66456;Laerm;56833;52.254;5.598;2023-03-08T00:51:46;43.39;42.32;44.35;;
66456;Laerm;56833;52.254;5.598;2023-03-08T00:52:00;43.42;42.30;44.57;;
66456;Laerm;56833;52.254;5.598;2023-03-08T00:52:10;43.44;42.22;44.45;;
66456;Laerm;56833;52.254;5.598;2023-03-08T00:52:20;43.42;42.46;44.28;;
66456;Laerm;56833;52.254;5.598;2023-03-08T00:52:31;43.43;42.37;44.44;;
66456;Laerm;56833;52.254;5.598;2023-03-08T00:52:41;43.46;41.90;44.56;;
66456;Laerm;56833;52.254;5.598;2023-03-08T00:52:51;43.46;42.58;44.52;;
66456;Laerm;56833;52.254;5.598;2023-03-08T00:53:02;43.46;42.55;44.64;;
66456;Laerm;56833;52.254;5.598;2023-03-08T00:53:15;43.48;42.48;44.27;;
66456;Laerm;56833;52.254;5.598;2023-03-08T00:53:32;43.44;42.46;44.54;;
66456;Laerm;56833;52.254;5.598;2023-03-08T00:53:42;43.42;42.37;44.45;;
66456;Laerm;56833;52.254;5.598;2023-03-08T00:53:54;43.44;42.46;44.47;;
66456;Laerm;56833;52.254;5.598;2023-03-08T00:54:04;43.43;42.60;44.42;;
66456;Laerm;56833;52.254;5.598;2023-03-08T00:54:17;43.43;42.42;44.57;;
66456;Laerm;56833;52.254;5.598;2023-03-08T00:54:34;43.44;42.42;44.38;;
66456;Laerm;56833;52.254;5.598;2023-03-08T00:54:44;43.44;42.49;44.47;;
66456;Laerm;56833;52.254;5.598;2023-03-08T00:54:54;43.39;42.31;44.21;;
66456;Laerm;56833;52.254;5.598;2023-03-08T00:55:10;43.41;42.31;44.32;;
66456;Laerm;56833;52.254;5.598;2023-03-08T00:55:20;43.42;42.56;44.45;;
66456;Laerm;56833;52.254;5.598;2023-03-08T00:55:36;43.38;42.29;44.39;;
66456;Laerm;56833;52.254;5.598;2023-03-08T00:55:48;43.42;42.43;44.21;;
66456;Laerm;56833;52.254;5.598;2023-03-08T00:55:58;43.41;42.34;44.68;;
66456;Laerm;56833;52.254;5.598;2023-03-08T00:56:09;43.40;42.29;44.37;;
66456;Laerm;56833;52.254;5.598;2023-03-08T00:56:19;43.38;42.36;44.21;;
66456;Laerm;56833;52.254;5.598;2023-03-08T00:56:30;43.41;42.35;44.60;;
66456;Laerm;56833;52.254;5.598;2023-03-08T00:56:40;43.44;42.52;44.64;;
66456;Laerm;56833;52.254;5.598;2023-03-08T00:56:50;43.36;42.21;44.30;;
66456;Laerm;56833;52.254;5.598;2023-03-08T00:57:03;43.39;42.14;44.37;;
66456;Laerm;56833;52.254;5.598;2023-03-08T00:57:19;43.39;42.54;44.64;;
66456;Laerm;56833;52.254;5.598;2023-03-08T00:57:50;43.40;42.10;44.52;;
66456;Laerm;56833;52.254;5.598;2023-03-08T00:58:04;43.41;42.22;44.37;;
66456;Laerm;56833;52.254;5.598;2023-03-08T00:58:14;43.43;42.32;44.41;;
66456;Laerm;56833;52.254;5.598;2023-03-08T00:58:25;43.47;42.44;44.29;;
66456;Laerm;56833;52.254;5.598;2023-03-08T00:58:39;43.41;42.49;44.29;;
66456;Laerm;56833;52.254;5.598;2023-03-08T00:58:49;43.39;42.36;44.31;;
66456;Laerm;56833;52.254;5.598;2023-03-08T00:59:08;43.39;42.39;44.21;;
66456;Laerm;56833;52.254;5.598;2023-03-08T00:59:18;43.37;42.33;44.42;;
66456;Laerm;56833;52.254;5.598;2023-03-08T00:59:28;43.39;42.39;44.47;;
66456;Laerm;56833;52.254;5.598;2023-03-08T00:59:38;43.40;42.50;44.62;;
66456;Laerm;56833;52.254;5.598;2023-03-08T00:59:49;43.37;42.20;44.18;;
66456;Laerm;56833;52.254;5.598;2023-03-08T01:00:02;43.41;42.23;44.23;;
66456;Laerm;56833;52.254;5.598;2023-03-08T01:00:16;43.35;42.39;44.39;;
66456;Laerm;56833;52.254;5.598;2023-03-08T01:00:26;43.43;42.50;44.30;;
66456;Laerm;56833;52.254;5.598;2023-03-08T01:00:43;43.42;42.21;44.55;;
66456;Laerm;56833;52.254;5.598;2023-03-08T01:00:56;43.39;42.42;44.44;;
66456;Laerm;56833;52.254;5.598;2023-03-08T01:01:13;43.42;42.47;44.24;;
66456;Laerm;56833;52.254;5.598;2023-03-08T01:01:26;43.38;42.08;44.45;;
66456;Laerm;56833;52.254;5.598;2023-03-08T01:01:42;43.40;42.40;44.35;;
66456;Laerm;56833;52.254;5.598;2023-03-08T01:01:53;43.40;42.38;44.35;;
66456;Laerm;56833;52.254;5.598;2023-03-08T01:02:06;43.41;42.31;44.32;;
66456;Laerm;56833;52.254;5.598;2023-03-08T01:02:16;43.41;42.68;44.36;;
66456;Laerm;56833;52.254;5.598;2023-03-08T01:02:32;43.45;42.50;44.36;;
66456;Laerm;56833;52.254;5.598;2023-03-08T01:02:48;43.44;42.50;44.43;;
66456;Laerm;56833;52.254;5.598;2023-03-08T01:02:58;43.43;42.42;44.37;;
66456;Laerm;56833;52.254;5.598;2023-03-08T01:03:09;43.45;42.25;44.25;;
66456;Laerm;56833;52.254;5.598;2023-03-08T01:03:52;43.43;42.48;44.42;;
66456;Laerm;56833;52.254;5.598;2023-03-08T01:04:03;43.43;42.40;44.42;;
66456;Laerm;56833;52.254;5.598;2023-03-08T01:04:34;43.41;42.25;44.57;;
66456;Laerm;56833;52.254;5.598;2023-03-08T01:04:47;43.43;42.39;44.68;;
66456;Laerm;56833;52.254;5.598;2023-03-08T01:04:57;43.42;42.63;44.38;;
66456;Laerm;56833;52.254;5.598;2023-03-08T01:05:08;43.39;42.49;44.55;;
66456;Laerm;56833;52.254;5.598;2023-03-08T01:05:24;43.40;42.45;44.34;;
66456;Laerm;56833;52.254;5.598;2023-03-08T01:05:41;43.42;42.12;44.32;;
66456;Laerm;56833;52.254;5.598;2023-03-08T01:05:52;43.41;42.47;44.36;;
66456;Laerm;56833;52.254;5.598;2023-03-08T01:06:07;43.41;42.53;44.50;;
66456;Laerm;56833;52.254;5.598;2023-03-08T01:06:18;43.43;42.53;44.46;;
66456;Laerm;56833;52.254;5.598;2023-03-08T01:06:28;43.42;42.43;44.32;;
66456;Laerm;56833;52.254;5.598;2023-03-08T01:06:38;43.42;42.40;44.30;;
66456;Laerm;56833;52.254;5.598;2023-03-08T01:06:58;43.44;42.59;44.28;;
66456;Laerm;56833;52.254;5.598;2023-03-08T01:07:11;43.41;42.43;44.48;;
66456;Laerm;56833;52.254;5.598;2023-03-08T01:07:24;43.46;42.60;44.46;;
66456;Laerm;56833;52.254;5.598;2023-03-08T01:07:40;43.43;42.42;44.42;;
66456;Laerm;56833;52.254;5.598;2023-03-08T01:08:11;43.44;42.40;44.72;;
66456;Laerm;56833;52.254;5.598;2023-03-08T01:08:27;43.44;42.55;44.58;;
66456;Laerm;56833;52.254;5.598;2023-03-08T01:08:39;43.45;42.40;44.30;;
66456;Laerm;56833;52.254;5.598;2023-03-08T01:08:51;43.43;42.50;44.60;;
66456;Laerm;56833;52.254;5.598;2023-03-08T01:09:01;43.43;42.28;44.34;;
66456;Laerm;56833;52.254;5.598;2023-03-08T01:09:27;43.46;42.53;44.68;;
66456;Laerm;56833;52.254;5.598;2023-03-08T01:09:46;43.45;42.42;44.57;;
66456;Laerm;56833;52.254;5.598;2023-03-08T01:09:57;43.46;42.45;44.37;;
66456;Laerm;56833;52.254;5.598;2023-03-08T01:10:28;43.45;42.60;44.28;;
66456;Laerm;56833;52.254;5.598;2023-03-08T01:10:56;43.45;42.34;44.30;;
66456;Laerm;56833;52.254;5.598;2023-03-08T01:11:13;43.42;42.09;44.45;;
66456;Laerm;56833;52.254;5.598;2023-03-08T01:11:35;43.42;42.32;44.29;;
66456;Laerm;56833;52.254;5.598;2023-03-08T01:11:46;43.40;42.28;44.24;;
66456;Laerm;56833;52.254;5.598;2023-03-08T01:11:56;43.45;42.59;44.65;;
66456;Laerm;56833;52.254;5.598;2023-03-08T01:12:10;43.41;42.44;44.48;;
66456;Laerm;56833;52.254;5.598;2023-03-08T01:13:11;43.44;42.57;44.62;;
66456;Laerm;56833;52.254;5.598;2023-03-08T01:13:31;43.43;42.10;44.54;;
66456;Laerm;56833;52.254;5.598;2023-03-08T01:13:45;43.47;42.69;44.50;;
66456;Laerm;56833;52.254;5.598;2023-03-08T01:13:55;43.44;42.06;44.31;;
66456;Laerm;56833;52.254;5.598;2023-03-08T01:14:06;43.44;42.49;44.58;;
66456;Laerm;56833;52.254;5.598;2023-03-08T01:14:23;43.42;42.24;44.47;;
66456;Laerm;56833;52.254;5.598;2023-03-08T01:14:33;43.42;42.27;44.53;;
66456;Laerm;56833;52.254;5.598;2023-03-08T01:14:43;43.43;42.46;44.43;;
66456;Laerm;56833;52.254;5.598;2023-03-08T01:14:59;43.39;42.42;44.32;;
66456;Laerm;56833;52.254;5.598;2023-03-08T01:15:09;43.42;42.41;44.41;;
66456;Laerm;56833;52.254;5.598;2023-03-08T01:15:19;43.41;42.33;44.47;;
66456;Laerm;56833;52.254;5.598;2023-03-08T01:15:39;43.42;42.24;44.54;;
66456;Laerm;56833;52.254;5.598;2023-03-08T01:15:49;43.44;42.41;44.52;;